createdAt,value
2022-10-02T00:03:27.246Z,7.45
2022-10-02T00:08:40.090Z,6.50
2022-10-02T00:13:48.480Z,7.73
2022-10-02T00:18:51.444Z,13.93
2022-10-02T00:24:01.185Z,13.27
2022-10-02T00:29:08.789Z,9.60
2022-10-02T00:34:21.662Z,10.60
2022-10-02T00:39:42.389Z,12.77
2022-10-02T00:44:47.530Z,10.35
2022-10-02T00:50:01.933Z,9.67
2022-10-02T00:55:13.672Z,11.18
2022-10-02T01:00:18.779Z,9.57
2022-10-02T01:05:21.588Z,10.47
2022-10-02T01:10:27.604Z,8.57
2022-10-02T01:15:39.711Z,9.30
2022-10-02T01:20:48.127Z,6.00
2022-10-02T01:25:50.607Z,5.28
2022-10-02T01:30:57.946Z,5.47
2022-10-02T01:36:00.730Z,6.10
2022-10-02T01:41:03.171Z,4.40
2022-10-02T01:46:08.825Z,4.83
2022-10-02T01:51:23.328Z,2.38
2022-10-02T01:57:06.919Z,1.67
2022-10-02T02:02:50.637Z,1.83
2022-10-02T02:08:10.074Z,4.70
2022-10-02T02:13:22.533Z,5.33
2022-10-02T02:18:51.464Z,2.47
2022-10-02T02:23:56.465Z,3.10
2022-10-02T02:29:02.795Z,2.50
2022-10-02T02:34:10.144Z,3.72
2022-10-02T02:39:29.592Z,4.60
2022-10-02T02:44:37.536Z,3.42
2022-10-02T02:50:00.670Z,4.70
2022-10-02T02:55:29.312Z,3.73
2022-10-02T03:00:31.794Z,6.00
2022-10-02T03:05:35.748Z,2.43
2022-10-02T03:10:40.927Z,3.78
2022-10-02T03:16:07.725Z,4.35
2022-10-02T03:21:17.756Z,3.57
2022-10-02T03:26:29.787Z,4.38
2022-10-02T03:31:33.712Z,8.50
2022-10-02T03:36:36.680Z,4.63
2022-10-02T03:41:39.460Z,6.25
2022-10-02T03:46:41.932Z,4.00
2022-10-02T03:51:44.522Z,3.05
2022-10-02T03:56:52.118Z,5.25
2022-10-02T04:01:55.659Z,5.77
2022-10-02T04:07:05.075Z,4.53
2022-10-02T04:12:32.240Z,3.80
2022-10-02T04:18:14.021Z,4.47
2022-10-02T04:23:32.391Z,4.78
2022-10-02T04:28:44.858Z,3.43
2022-10-02T04:33:47.306Z,4.00
2022-10-02T04:39:12.915Z,3.53
2022-10-02T04:44:36.774Z,3.75
2022-10-02T04:49:48.252Z,4.25
2022-10-02T04:54:53.708Z,3.50
2022-10-02T05:00:09.767Z,4.53
2022-10-02T05:05:22.093Z,3.30
2022-10-02T05:10:27.291Z,3.63
2022-10-02T05:15:45.933Z,3.85
2022-10-02T05:21:13.945Z,6.77
2022-10-02T05:26:41.614Z,3.05
2022-10-02T05:31:56.018Z,2.63
2022-10-02T05:37:03.321Z,3.23
2022-10-02T05:42:23.524Z,3.20
2022-10-02T05:47:39.736Z,2.30
2022-10-02T05:52:55.807Z,2.67
2022-10-02T05:58:06.470Z,3.25
2022-10-02T06:03:49.899Z,2.97
2022-10-02T06:09:03.975Z,3.30
2022-10-02T06:14:37.574Z,3.45
2022-10-02T06:19:45.451Z,4.50
2022-10-02T06:24:59.354Z,2.93
2022-10-02T06:30:07.058Z,4.43
2022-10-02T06:35:14.329Z,2.47
2022-10-02T06:40:31.130Z,4.27
2022-10-02T06:46:16.413Z,2.65
2022-10-02T06:51:54.809Z,5.13
2022-10-02T06:57:08.961Z,2.53
2022-10-02T10:39:58.105Z,1.65
2022-10-02T10:45:24.535Z,2.63
2022-10-02T10:51:04.464Z,3.10
2022-10-02T10:56:31.210Z,2.25
2022-10-02T11:01:45.483Z,2.03
2022-10-02T11:07:08.520Z,1.87
2022-10-02T11:12:21.747Z,3.40
2022-10-02T11:17:50.900Z,1.48
2022-10-02T11:22:59.197Z,2.37
2022-10-02T11:28:29.627Z,2.00
2022-10-02T11:33:57.637Z,2.30
2022-10-02T11:39:17.361Z,2.15
2022-10-02T11:44:38.677Z,4.03
2022-10-02T11:50:19.085Z,1.80
2022-10-02T11:55:34.259Z,2.05
2022-10-02T12:00:56.227Z,4.03
2022-10-02T12:06:32.301Z,1.98
2022-10-02T12:12:17.114Z,3.03
2022-10-02T12:17:56.739Z,2.20
2022-10-02T12:23:25.770Z,3.08
2022-10-02T12:29:05.701Z,2.13
2022-10-02T12:34:28.853Z,1.60
2022-10-02T12:39:44.616Z,1.40
2022-10-02T12:45:11.370Z,2.08
2022-10-02T12:50:27.965Z,2.87
2022-10-02T12:55:55.930Z,3.47
2022-10-02T13:01:20.209Z,2.35
2022-10-02T13:06:29.724Z,1.20
2022-10-02T13:11:35.373Z,1.67
2022-10-02T13:16:47.005Z,2.40
2022-10-02T13:22:10.124Z,2.28
2022-10-02T13:27:35.070Z,1.90
2022-10-02T13:32:55.133Z,3.00
2022-10-02T13:38:35.049Z,1.48
2022-10-02T13:43:42.319Z,1.60
2022-10-02T13:49:06.661Z,2.07
2022-10-02T13:54:32.191Z,1.08
2022-10-02T14:00:16.079Z,3.60
2022-10-02T14:06:00.801Z,2.13
2022-10-02T14:11:22.707Z,2.03
2022-10-02T14:16:50.203Z,1.52
2022-10-02T14:22:38.770Z,3.83
2022-10-02T14:28:14.784Z,4.03
2022-10-02T14:33:29.984Z,1.70
2022-10-02T14:38:40.185Z,1.70
2022-10-02T14:44:14.435Z,1.50
2022-10-02T14:49:39.765Z,1.10
2022-10-02T14:54:59.767Z,1.77
2022-10-02T15:00:07.994Z,1.50
2022-10-02T15:05:31.683Z,2.47
2022-10-02T15:10:36.274Z,2.27
2022-10-02T15:15:41.417Z,2.97
2022-10-02T15:21:01.396Z,5.07
2022-10-02T15:26:22.805Z,1.83
2022-10-02T15:31:42.200Z,2.25
2022-10-02T15:37:17.812Z,2.08
2022-10-02T15:42:50.054Z,3.27
2022-10-02T15:48:21.462Z,4.20
2022-10-02T15:53:32.985Z,3.42
2022-10-02T15:58:57.184Z,3.87
2022-10-02T16:04:25.429Z,4.20
2022-10-02T16:09:48.924Z,5.05
2022-10-02T16:15:15.092Z,6.07
2022-10-02T16:20:44.810Z,4.32
2022-10-02T16:26:18.203Z,3.93
2022-10-02T16:31:57.024Z,3.90
2022-10-02T16:37:26.690Z,4.55
2022-10-02T16:42:39.647Z,3.83
2022-10-02T16:47:55.136Z,4.67
2022-10-02T16:53:24.599Z,5.43
2022-10-02T16:58:32.808Z,5.80
2022-10-02T17:03:46.298Z,30.00
2022-10-02T17:08:56.543Z,13.45
2022-10-02T17:14:31.099Z,7.37
2022-10-02T17:20:08.796Z,4.83
2022-10-02T17:25:27.130Z,4.47
2022-10-02T17:30:43.920Z,6.43
2022-10-02T17:36:27.296Z,8.10
2022-10-02T17:41:48.045Z,4.78
2022-10-02T17:47:18.884Z,7.40
2022-10-02T17:52:58.037Z,7.60
2022-10-02T17:58:06.911Z,9.32
2022-10-02T18:03:13.332Z,9.27
2022-10-02T18:08:36.329Z,10.00
2022-10-02T18:14:02.780Z,15.13
2022-10-02T18:19:24.032Z,11.20
2022-10-02T18:24:35.477Z,11.43
2022-10-02T18:29:46.784Z,11.10
2022-10-02T18:35:10.980Z,9.60
2022-10-02T18:40:22.366Z,8.80
2022-10-02T18:45:34.341Z,11.98
2022-10-02T18:50:49.817Z,6.73
2022-10-02T18:56:07.020Z,7.53
2022-10-02T19:01:12.343Z,8.30
2022-10-02T19:06:29.654Z,12.38
2022-10-02T19:11:46.662Z,13.57
2022-10-02T19:17:05.455Z,14.60
2022-10-02T19:22:21.007Z,19.23
2022-10-02T19:27:32.306Z,20.35
2022-10-02T19:32:43.318Z,22.30
2022-10-02T19:37:51.296Z,21.50
2022-10-02T19:43:14.807Z,14.83
2022-10-02T19:48:19.255Z,18.65
2022-10-02T19:53:25.875Z,16.42
2022-10-02T19:58:36.488Z,20.57
2022-10-02T20:03:40.031Z,16.83
2022-10-02T20:08:51.836Z,8.33
2022-10-02T20:14:22.988Z,2.30
2022-10-02T20:19:34.376Z,9.63
2022-10-02T20:25:26.617Z,11.83
2022-10-02T20:30:35.808Z,7.22
2022-10-02T20:35:45.156Z,6.10
2022-10-02T20:40:53.270Z,6.95
2022-10-02T20:46:02.624Z,12.07
2022-10-02T20:51:16.218Z,6.83
2022-10-02T20:56:23.060Z,4.43
2022-10-02T21:01:35.225Z,5.23
2022-10-02T21:06:46.899Z,4.72
2022-10-02T21:12:26.906Z,5.78
2022-10-02T21:17:43.264Z,5.17
2022-10-02T21:23:07.800Z,6.97
2022-10-02T21:28:48.863Z,11.03
2022-10-02T21:34:10.504Z,6.95
2022-10-02T21:39:25.432Z,4.20
2022-10-02T21:44:34.789Z,8.17
2022-10-02T21:50:11.949Z,9.90
2022-10-02T21:55:53.257Z,9.57
2022-10-02T22:01:14.169Z,4.03
2022-10-02T22:06:22.805Z,3.28
2022-10-02T22:11:37.746Z,2.73
2022-10-02T22:16:51.489Z,4.55
2022-10-02T22:22:32.223Z,5.20
2022-10-02T22:27:56.349Z,8.80
2022-10-02T22:33:21.733Z,6.72
2022-10-02T22:38:51.953Z,8.40
2022-10-02T22:44:03.539Z,9.80
2022-10-02T22:49:10.061Z,7.23
2022-10-02T22:54:25.473Z,12.63
2022-10-02T22:59:44.153Z,7.00
2022-10-02T23:05:00.191Z,5.43
2022-10-02T23:10:15.103Z,9.75
2022-10-02T23:15:47.078Z,11.07
2022-10-02T23:21:05.255Z,6.97
2022-10-02T23:26:09.766Z,9.05
2022-10-02T23:31:23.005Z,7.40
2022-10-02T23:36:51.810Z,6.07
2022-10-02T23:41:57.751Z,3.63
2022-10-02T23:47:14.610Z,5.15
2022-10-02T23:52:35.679Z,2.45
2022-10-02T23:57:47.213Z,2.93
